Time;durP1;ratioP1;P1;durP2;ratioP2;P2;SDS_P1;SDS_P2;PMS_P1;PMS_P2;Temp;Humidity;BMP_temperature;BMP_pressure;BME280_temperature;BME280_humidity;BME280_pressure;Samples;Min_cycle;Max_cycle;Signal;HPM_P1;HPM_P2
2023/11/28 00:02:26;;;;;;;8.63;6.50;;;;;;;1.34;100.00;99624.22;5132438;27;20055;-56
2023/11/28 00:04:55;;;;;;;7.93;5.72;;;;;;;1.35;100.00;99623.31;5134571;27;20071;-55
2023/11/28 00:07:23;;;;;;;8.88;6.53;;;;;;;1.34;100.00;99625.03;5134021;27;20054;-54
2023/11/28 00:09:52;;;;;;;9.38;7.00;;;;;;;1.35;100.00;99638.84;5133478;27;20149;-55
2023/11/28 00:12:20;;;;;;;9.65;6.57;;;;;;;1.38;100.00;99633.53;5131470;27;20043;-53
2023/11/28 00:14:49;;;;;;;10.35;7.25;;;;;;;1.34;100.00;99639.75;5133523;27;20046;-56
2023/11/28 00:17:17;;;;;;;10.60;7.63;;;;;;;1.32;100.00;99639.84;5132845;27;20126;-54
2023/11/28 00:19:47;;;;;;;10.63;7.63;;;;;;;1.27;100.00;99633.16;5132753;27;20474;-46
2023/11/28 00:22:15;;;;;;;10.95;7.90;;;;;;;1.24;100.00;99652.28;5135020;27;20049;-46
2023/11/28 00:24:43;;;;;;;10.55;7.82;;;;;;;1.24;100.00;99662.66;5136275;27;20061;-46
2023/11/28 00:27:11;;;;;;;11.73;8.38;;;;;;;1.21;100.00;99664.53;5136380;27;20096;-46
2023/11/28 00:29:40;;;;;;;11.30;8.18;;;;;;;1.18;100.00;99665.50;5136115;27;20070;-46
2023/11/28 00:32:08;;;;;;;11.10;7.72;;;;;;;1.19;100.00;99693.09;5136336;27;20039;-46
2023/11/28 00:34:36;;;;;;;11.35;8.32;;;;;;;1.18;100.00;99678.47;5135879;27;20062;-46
2023/11/28 00:37:08;;;;;;;11.32;8.00;;;;;;;1.15;100.00;99683.78;5135910;27;20524;-48
2023/11/28 00:39:37;;;;;;;10.57;7.68;;;;;;;1.16;100.00;99683.72;5136115;27;20070;-54
2023/11/28 00:42:05;;;;;;;9.32;6.32;;;;;;;1.17;100.00;99676.78;5135082;27;20047;-54
2023/11/28 00:44:34;;;;;;;9.25;6.35;;;;;;;1.12;100.00;99684.75;5132983;27;20417;-49
2023/11/28 00:47:02;;;;;;;9.02;6.13;;;;;;;1.14;100.00;99685.50;5132481;27;20112;-47
2023/11/28 00:49:30;;;;;;;11.20;6.15;;;;;;;1.13;100.00;99702.00;5134838;27;20070;-46
2023/11/28 00:51:58;;;;;;;8.57;5.63;;;;;;;1.08;100.00;99716.88;5117253;27;20053;-56
2023/11/28 00:54:28;;;;;;;9.30;6.50;;;;;;;1.10;100.00;99706.44;5134560;27;20051;-54
2023/11/28 00:57:00;;;;;;;8.80;5.47;;;;;;;1.07;100.00;99716.94;5130721;27;20035;-55
2023/11/28 00:59:28;;;;;;;8.77;5.63;;;;;;;1.09;100.00;99717.72;5131831;27;20043;-55
2023/11/28 01:01:56;;;;;;;8.90;5.75;;;;;;;1.12;100.00;99733.97;5132517;27;20049;-53
2023/11/28 01:04:25;;;;;;;8.68;6.00;;;;;;;1.10;100.00;99728.00;5116310;27;20043;-54
2023/11/28 01:06:54;;;;;;;9.80;6.18;;;;;;;1.10;100.00;99732.34;5135626;27;20417;-54
2023/11/28 01:09:22;;;;;;;9.35;6.22;;;;;;;1.11;100.00;99736.63;5135507;27;20054;-55
2023/11/28 01:11:52;;;;;;;8.88;6.30;;;;;;;1.10;100.00;99742.72;5135603;27;20066;-53
2023/11/28 01:14:20;;;;;;;9.35;6.25;;;;;;;1.09;100.00;99751.38;5134901;27;20050;-54
2023/11/28 01:16:48;;;;;;;9.88;6.20;;;;;;;1.09;100.00;99757.41;5135271;27;20047;-54
2023/11/28 01:19:16;;;;;;;9.80;6.38;;;;;;;1.08;100.00;99766.09;5135335;27;20934;-55
2023/11/28 01:21:44;;;;;;;9.25;5.88;;;;;;;1.03;100.00;99769.78;5133868;27;20047;-54
2023/11/28 01:24:12;;;;;;;10.00;6.15;;;;;;;1.04;100.00;99780.06;5131651;27;20042;-54
2023/11/28 01:26:41;;;;;;;10.32;6.30;;;;;;;0.96;100.00;99790.75;5113066;27;20051;-54
2023/11/28 01:29:10;;;;;;;10.70;5.80;;;;;;;0.96;100.00;99792.50;5131693;27;20375;-54
2023/11/28 01:31:38;;;;;;;9.85;5.82;;;;;;;1.01;100.00;99788.81;5131601;27;20062;-46
2023/11/28 01:34:07;;;;;;;9.00;5.60;;;;;;;0.97;100.00;99805.38;5130798;27;20126;-47
2023/11/28 01:36:44;;;;;;;9.75;5.85;;;;;;;0.92;100.00;99801.31;5132757;27;20051;-46
2023/11/28 01:39:15;;;;;;;8.68;5.60;;;;;;;0.96;100.00;99808.03;5132024;27;20043;-46
2023/11/28 01:41:47;;;;;;;9.57;5.95;;;;;;;0.97;100.00;99810.56;5129114;27;20051;-46
2023/11/28 01:44:17;;;;;;;11.00;6.30;;;;;;;0.98;100.00;99814.84;5134793;27;20103;-45
2023/11/28 01:46:48;;;;;;;7.97;5.22;;;;;;;0.94;100.00;99823.66;5116193;27;20043;-45
2023/11/28 01:49:16;;;;;;;9.90;6.35;;;;;;;0.95;100.00;99827.06;5134735;27;20039;-48
2023/11/28 01:51:45;;;;;;;8.40;5.70;;;;;;;0.96;100.00;99834.75;5134549;27;20401;-45
2023/11/28 01:54:14;;;;;;;9.38;5.88;;;;;;;0.95;100.00;99837.41;5130232;27;20054;-46
2023/11/28 01:56:42;;;;;;;9.52;5.88;;;;;;;0.92;100.00;99856.50;5129631;27;20050;-49
2023/11/28 01:59:11;;;;;;;10.07;6.70;;;;;;;0.91;100.00;99861.75;5134566;27;20096;-47
2023/11/28 02:01:42;;;;;;;9.65;6.03;;;;;;;0.88;100.00;99847.19;5115918;27;20142;-47
2023/11/28 02:04:12;;;;;;;10.25;6.20;;;;;;;0.87;100.00;99857.59;5134401;27;20474;-46
2023/11/28 02:06:41;;;;;;;11.52;6.40;;;;;;;0.93;100.00;99872.91;5134201;27;20067;-46
2023/11/28 02:09:09;;;;;;;10.07;5.95;;;;;;;0.86;100.00;99858.50;5134041;27;20051;-47
2023/11/28 02:11:37;;;;;;;9.90;6.10;;;;;;;0.91;100.00;99866.94;5134261;27;20058;-47
2023/11/28 02:14:06;;;;;;;9.38;6.50;;;;;;;0.89;100.00;99873.94;5134231;27;20134;-47
2023/11/28 02:16:36;;;;;;;10.45;6.53;;;;;;;0.84;100.00;99881.88;5134312;27;20039;-49
2023/11/28 02:19:06;;;;;;;10.35;6.38;;;;;;;0.86;100.00;99885.25;5115422;27;20049;-48
2023/11/28 02:21:34;;;;;;;11.55;7.03;;;;;;;0.80;100.00;99891.50;5133705;27;20069;-49
2023/11/28 02:24:05;;;;;;;9.48;6.20;;;;;;;0.80;100.00;99890.66;5129797;27;20062;-49
2023/11/28 02:26:34;;;;;;;9.27;6.38;;;;;;;0.77;100.00;99903.75;5130306;27;20110;-47
2023/11/28 02:29:02;;;;;;;9.98;6.82;;;;;;;0.73;100.00;99900.41;5133982;27;20490;-48
2023/11/28 02:31:31;;;;;;;10.02;6.22;;;;;;;0.72;100.00;99909.06;5133833;27;20051;-48
2023/11/28 02:33:59;;;;;;;11.77;7.00;;;;;;;0.69;100.00;99904.03;5115353;27;20097;-46
2023/11/28 02:36:28;;;;;;;10.35;7.18;;;;;;;0.76;100.00;99912.41;5133928;27;20049;-48
2023/11/28 02:38:56;;;;;;;10.45;7.32;;;;;;;0.76;100.00;99914.97;5131625;27;20498;-46
2023/11/28 02:41:26;;;;;;;12.05;8.10;;;;;;;0.79;100.00;99912.28;5127797;27;21060;-47
2023/11/28 02:43:56;;;;;;;11.68;7.68;;;;;;;0.75;100.00;99924.50;5132336;27;20402;-46
2023/11/28 02:46:27;;;;;;;13.13;7.22;;;;;;;0.75;100.00;99921.91;5133832;27;20673;-46
2023/11/28 02:48:55;;;;;;;10.02;7.55;;;;;;;0.81;100.00;99928.59;5133789;27;20100;-50
2023/11/28 02:51:23;;;;;;;10.20;7.38;;;;;;;0.78;100.00;99934.75;5133472;27;20050;-47
2023/11/28 02:53:51;;;;;;;12.13;7.63;;;;;;;0.79;100.00;99939.03;5133575;27;20409;-47
2023/11/28 02:56:20;;;;;;;11.20;7.55;;;;;;;0.77;100.00;99937.38;5133780;27;20050;-49
2023/11/28 02:58:49;;;;;;;11.30;8.05;;;;;;;0.80;100.00;99952.78;5133494;27;20045;-54
2023/11/28 03:01:19;;;;;;;12.48;8.60;;;;;;;0.80;100.00;99945.84;5133155;27;20054;-52
2023/11/28 03:03:47;;;;;;;12.02;8.40;;;;;;;0.75;100.00;99954.72;5133113;27;20497;-52
2023/11/28 03:06:18;;;;;;;12.13;7.72;;;;;;;0.74;100.00;99958.22;5133238;27;20035;-54
2023/11/28 03:08:47;;;;;;;10.90;7.43;;;;;;;0.71;100.00;99966.09;5130196;27;20134;-55
2023/11/28 03:11:17;;;;;;;11.02;7.13;;;;;;;0.67;100.00;99961.03;5127580;27;20111;-52
2023/11/28 03:13:45;;;;;;;12.65;8.38;;;;;;;0.66;100.00;99963.69;5130166;27;20050;-55
2023/11/28 03:16:13;;;;;;;10.82;7.35;;;;;;;0.70;100.00;99967.84;5131839;27;20512;-54
2023/11/28 03:18:43;;;;;;;9.63;7.15;;;;;;;0.71;100.00;99969.53;5129312;27;20105;-54
2023/11/28 03:21:14;;;;;;;11.18;6.97;;;;;;;0.69;100.00;99973.09;5128847;27;20103;-55
2023/11/28 03:23:42;;;;;;;9.52;6.68;;;;;;;0.65;100.00;99983.53;5129082;27;20490;-53
2023/11/28 03:26:10;;;;;;;12.38;6.93;;;;;;;0.59;100.00;99983.78;5133106;27;20053;-56
2023/11/28 03:28:38;;;;;;;10.55;6.25;;;;;;;0.62;100.00;99985.41;5132728;27;20070;-55
2023/11/28 03:31:07;;;;;;;9.65;5.85;;;;;;;0.61;100.00;99981.13;5132924;27;20031;-53
2023/11/28 03:33:38;;;;;;;8.77;5.38;;;;;;;0.62;100.00;99995.75;5130453;27;20047;-54
2023/11/28 03:36:16;;;;;;;10.38;5.85;;;;;;;0.65;100.00;99991.28;5128479;27;20414;-54
2023/11/28 03:38:47;;;;;;;11.13;5.93;;;;;;;0.60;100.00;99994.97;5132756;27;20050;-54
2023/11/28 03:41:15;;;;;;;9.05;5.43;;;;;;;0.58;100.00;100004.53;5114403;28;20588;-56
2023/11/28 03:43:43;;;;;;;8.52;5.45;;;;;;;0.52;100.00;100005.63;5132822;27;20096;-55
2023/11/28 03:46:11;;;;;;;9.27;4.85;;;;;;;0.53;100.00;100014.22;5132756;27;20039;-54
2023/11/28 03:48:39;;;;;;;8.60;4.80;;;;;;;0.48;100.00;100019.56;5110682;28;20051;-55
2023/11/28 03:51:09;;;;;;;9.00;4.32;;;;;;;0.41;100.00;100042.22;5110653;28;20051;-54
2023/11/28 03:53:37;;;;;;;7.80;3.85;;;;;;;0.35;100.00;100031.25;5132585;28;20040;-45
2023/11/28 03:56:06;;;;;;;7.78;3.80;;;;;;;0.37;100.00;100043.22;5114011;28;20055;-46
2023/11/28 03:58:34;;;;;;;7.85;3.78;;;;;;;0.29;100.00;100050.41;5114085;28;20138;-47
2023/11/28 04:01:03;;;;;;;10.43;3.90;;;;;;;0.22;100.00;100052.38;5132477;28;20051;-46
2023/11/28 04:03:31;;;;;;;7.13;3.15;;;;;;;0.23;100.00;100056.66;5132475;28;20128;-48
2023/11/28 04:05:59;;;;;;;5.70;2.85;;;;;;;0.13;100.00;100063.88;5132467;28;20047;-46
2023/11/28 04:08:29;;;;;;;6.00;2.50;;;;;;;0.06;100.00;100072.75;5132314;28;20047;-47
2023/11/28 04:10:59;;;;;;;5.55;2.42;;;;;;;0.04;100.00;100078.84;5132656;28;20058;-47
2023/11/28 04:13:27;;;;;;;5.15;2.53;;;;;;;0.03;100.00;100080.59;5132581;28;20046;-47
2023/11/28 04:15:57;;;;;;;5.03;2.40;;;;;;;-0.01;100.00;100084.19;5132388;28;20047;-46
2023/11/28 04:18:27;;;;;;;5.82;2.38;;;;;;;-0.08;100.00;100086.13;5132162;28;20577;-47
2023/11/28 04:20:55;;;;;;;5.78;2.05;;;;;;;-0.13;100.00;100095.78;5113424;28;20043;-46
2023/11/28 04:23:23;;;;;;;5.43;2.35;;;;;;;-0.21;100.00;100088.25;5132252;28;20051;-46
2023/11/28 04:25:53;;;;;;;4.30;2.10;;;;;;;-0.25;100.00;100093.59;5132212;28;20054;-52
2023/11/28 04:28:21;;;;;;;4.10;1.98;;;;;;;-0.28;100.00;100106.63;5113810;28;20059;-51
2023/11/28 04:30:49;;;;;;;4.93;2.50;;;;;;;-0.26;100.00;100105.69;5132145;28;20484;-48
2023/11/28 04:33:17;;;;;;;6.45;2.22;;;;;;;-0.28;100.00;100107.44;5132243;28;20498;-50
2023/11/28 04:35:45;;;;;;;5.10;2.20;;;;;;;-0.36;100.00;100122.34;5132187;28;20126;-48
2023/11/28 04:38:13;;;;;;;4.60;2.08;;;;;;;-0.43;100.00;100116.53;5132296;28;20047;-47
2023/11/28 04:40:42;;;;;;;4.38;2.05;;;;;;;-0.51;100.00;100132.25;5132029;28;20062;-47
2023/11/28 04:43:11;;;;;;;5.35;2.13;;;;;;;-0.50;100.00;100127.97;5112678;28;20104;-47
2023/11/28 04:45:39;;;;;;;4.68;2.50;;;;;;;-0.55;100.00;100122.06;5128101;28;20047;-48
2023/11/28 04:48:08;;;;;;;4.28;1.95;;;;;;;-0.62;100.00;100134.34;5130734;27;20043;-46
2023/11/28 04:50:36;;;;;;;5.18;1.90;;;;;;;-0.69;100.00;100133.66;5135637;27;20537;-48
2023/11/28 04:53:04;;;;;;;5.65;2.10;;;;;;;-0.68;100.00;100131.94;5135817;27;20488;-47
2023/11/28 04:55:32;;;;;;;3.95;1.95;;;;;;;-0.69;100.00;100138.00;5135831;27;20125;-48
2023/11/28 04:58:00;;;;;;;4.13;2.10;;;;;;;-0.69;100.00;100146.59;5117446;27;20055;-47
2023/11/28 05:00:30;;;;;;;5.25;2.03;;;;;;;-0.75;100.00;100141.63;5135577;27;20524;-46
2023/11/28 05:02:58;;;;;;;5.93;2.22;;;;;;;-0.76;100.00;100144.25;5135495;27;20039;-48
2023/11/28 05:05:29;;;;;;;4.68;2.30;;;;;;;-0.74;100.00;100145.03;5135794;27;20409;-47
2023/11/28 05:07:58;;;;;;;5.53;2.08;;;;;;;-0.79;100.00;100158.09;5135503;27;20133;-48
2023/11/28 05:10:26;;;;;;;5.53;2.63;;;;;;;-0.80;100.00;100158.97;5114311;27;20050;-47
2023/11/28 05:12:57;;;;;;;5.85;2.53;;;;;;;-0.83;100.00;100164.25;5117057;27;20055;-46
2023/11/28 05:15:25;;;;;;;5.10;2.22;;;;;;;-0.83;100.00;100166.81;5117104;27;20051;-45
2023/11/28 05:17:55;;;;;;;5.30;2.40;;;;;;;-0.89;100.00;100172.97;5135309;27;20045;-47
2023/11/28 05:20:23;;;;;;;8.90;2.80;;;;;;;-0.89;100.00;100167.81;5135192;27;20042;-49
2023/11/28 05:22:51;;;;;;;5.90;2.83;;;;;;;-0.86;100.00;100179.78;5135339;27;20447;-55
2023/11/28 05:25:19;;;;;;;6.57;2.78;;;;;;;-0.88;100.00;100185.00;5135310;27;20425;-54
2023/11/28 05:27:47;;;;;;;4.45;2.40;;;;;;;-0.85;100.00;100186.66;5133379;27;20051;-53
2023/11/28 05:30:16;;;;;;;5.22;2.80;;;;;;;-0.82;100.00;100198.63;5112686;27;20043;-54
2023/11/28 05:32:45;;;;;;;7.07;2.58;;;;;;;-0.85;100.00;100199.56;5131278;27;20092;-54
2023/11/28 05:35:15;;;;;;;6.47;3.00;;;;;;;-0.88;100.00;100199.66;5130938;27;20146;-53
2023/11/28 05:37:43;;;;;;;7.72;2.55;;;;;;;-0.84;100.00;100203.84;5131090;27;20035;-52
2023/11/28 05:40:12;;;;;;;8.32;3.42;;;;;;;-0.86;100.00;100198.72;5118673;27;20629;-55
2023/11/28 05:42:40;;;;;;;7.47;3.20;;;;;;;-0.83;100.00;100209.84;5114205;28;20409;-53
2023/11/28 05:45:09;;;;;;;6.85;3.05;;;;;;;-0.87;100.00;100220.28;5111198;28;20051;-55
2023/11/28 05:47:38;;;;;;;7.13;3.35;;;;;;;-0.87;100.00;100219.44;5092073;28;20537;-55
2023/11/28 05:50:07;;;;;;;7.35;3.42;;;;;;;-0.89;100.00;100224.63;5112966;28;20054;-52
2023/11/28 05:52:37;;;;;;;6.53;2.95;;;;;;;-0.87;100.00;100232.34;5112673;28;20075;-52
2023/11/28 05:55:06;;;;;;;5.70;2.55;;;;;;;-0.81;100.00;100231.31;5114003;28;20376;-54
2023/11/28 05:57:34;;;;;;;6.65;3.35;;;;;;;-0.80;100.00;100244.19;5114281;28;20482;-54
2023/11/28 06:00:04;;;;;;;7.15;2.83;;;;;;;-0.76;100.00;100239.81;5110441;28;20138;-53
2023/11/28 06:02:32;;;;;;;8.20;3.17;;;;;;;-0.66;100.00;100246.38;5111047;28;20380;-47
2023/11/28 06:05:02;;;;;;;8.57;3.22;;;;;;;-0.67;100.00;100252.44;5113851;28;20052;-45
2023/11/28 06:07:31;;;;;;;6.40;3.08;;;;;;;-0.67;100.00;100255.00;5113945;28;20517;-47
2023/11/28 06:10:01;;;;;;;5.68;2.65;;;;;;;-0.67;100.00;100260.19;5111839;28;20469;-53
2023/11/28 06:12:29;;;;;;;8.88;3.25;;;;;;;-0.66;100.00;100261.03;5113958;28;20032;-46
2023/11/28 06:14:57;;;;;;;6.07;2.83;;;;;;;-0.65;100.00;100267.91;5113406;28;20047;-47
2023/11/28 06:17:26;;;;;;;6.07;2.92;;;;;;;-0.63;100.00;100266.13;5113988;28;20043;-49
2023/11/28 06:19:54;;;;;;;5.93;2.92;;;;;;;-0.61;100.00;100272.94;5113172;28;20047;-51
2023/11/28 06:22:27;;;;;;;5.68;2.60;;;;;;;-0.56;100.00;100284.00;5113854;28;20050;-54
2023/11/28 06:24:55;;;;;;;6.90;2.80;;;;;;;-0.51;100.00;100289.84;5091557;28;20495;-52
2023/11/28 06:27:25;;;;;;;5.60;2.45;;;;;;;-0.51;100.00;100289.03;5109060;28;20176;-52
2023/11/28 06:29:54;;;;;;;7.57;3.58;;;;;;;-0.54;100.00;100292.53;5113365;28;20491;-53
2023/11/28 06:32:22;;;;;;;7.13;2.70;;;;;;;-0.49;100.00;100295.00;5111894;28;20055;-51
2023/11/28 06:34:50;;;;;;;7.53;3.17;;;;;;;-0.51;100.00;100300.19;5113282;28;20039;-53
2023/11/28 06:37:20;;;;;;;7.15;3.22;;;;;;;-0.43;100.00;100304.31;5113021;28;20040;-53
2023/11/28 06:39:48;;;;;;;9.05;3.03;;;;;;;-0.42;100.00;100309.44;5110492;28;20058;-52
2023/11/28 06:42:16;;;;;;;7.10;3.10;;;;;;;-0.43;100.00;100322.41;5108945;28;20038;-54
2023/11/28 06:44:46;;;;;;;6.40;2.90;;;;;;;-0.45;100.00;100327.63;5112843;28;20039;-53
2023/11/28 06:47:14;;;;;;;6.45;2.60;;;;;;;-0.41;100.00;100333.53;5110703;28;20043;-55
2023/11/28 06:49:45;;;;;;;7.65;2.90;;;;;;;-0.38;100.00;100333.47;5108805;28;20485;-51
2023/11/28 06:52:13;;;;;;;7.93;3.10;;;;;;;-0.32;100.00;100348.78;5111878;28;20043;-56
2023/11/28 06:54:43;;;;;;;8.85;2.65;;;;;;;-0.29;100.00;100348.69;5112318;28;20383;-54
2023/11/28 06:57:12;;;;;;;7.43;3.38;;;;;;;-0.31;100.00;100350.47;5107665;28;20040;-54
2023/11/28 06:59:40;;;;;;;6.93;2.50;;;;;;;-0.30;100.00;100351.31;5109833;28;20048;-55
2023/11/28 07:02:09;;;;;;;5.55;2.60;;;;;;;-0.30;100.00;100361.66;5110186;28;20059;-53
2023/11/28 07:04:38;;;;;;;6.05;2.63;;;;;;;-0.30;100.00;100361.66;5112415;28;20043;-54
2023/11/28 07:07:06;;;;;;;7.90;2.60;;;;;;;-0.28;100.00;100360.72;5109677;28;20038;-53
2023/11/28 07:09:36;;;;;;;5.53;2.65;;;;;;;-0.24;100.00;100364.91;5109903;28;20083;-54
2023/11/28 07:12:05;;;;;;;5.95;2.78;;;;;;;-0.23;100.00;100368.34;5107059;28;20044;-53
2023/11/28 07:14:33;;;;;;;6.10;2.67;;;;;;;-0.25;100.00;100376.16;5108415;28;20050;-51
2023/11/28 07:17:01;;;;;;;6.03;2.88;;;;;;;-0.25;100.00;100375.31;5111845;28;20043;-53
2023/11/28 07:19:31;;;;;;;6.78;3.10;;;;;;;-0.25;100.00;100380.47;5111645;28;20104;-52
2023/11/28 07:21:59;;;;;;;7.70;3.08;;;;;;;-0.24;100.00;100383.00;5108765;28;20131;-53
2023/11/28 07:24:27;;;;;;;5.43;2.78;;;;;;;-0.13;100.00;100379.31;5110567;28;20050;-53
2023/11/28 07:26:55;;;;;;;6.38;2.70;;;;;;;-0.15;100.00;100375.91;5112327;28;20139;-54
2023/11/28 07:29:25;;;;;;;5.97;2.40;;;;;;;-0.15;100.00;100381.06;5112296;28;20063;-53
2023/11/28 07:31:54;;;;;;;4.93;2.80;;;;;;;-0.11;100.00;100387.84;5109500;28;20458;-53
2023/11/28 07:34:22;;;;;;;6.35;2.47;;;;;;;-0.09;100.00;100401.59;5108871;28;20047;-53
2023/11/28 07:36:51;;;;;;;4.95;2.40;;;;;;;-0.03;100.00;100398.81;5107956;28;20063;-51
2023/11/28 07:39:19;;;;;;;5.88;2.83;;;;;;;0.01;100.00;100405.59;5108669;28;20071;-53
2023/11/28 07:41:48;;;;;;;4.78;2.30;;;;;;;-0.03;100.00;100414.31;5106556;28;20063;-51
2023/11/28 07:44:16;;;;;;;8.60;2.80;;;;;;;-0.07;100.00;100413.59;5108512;28;20043;-53
2023/11/28 07:46:44;;;;;;;5.15;2.58;;;;;;;-0.01;100.00;100420.31;5108828;28;20544;-49
2023/11/28 07:49:13;;;;;;;5.95;2.45;;;;;;;-0.01;100.00;100425.50;5107460;28;20368;-49
2023/11/28 07:51:41;;;;;;;4.85;2.38;;;;;;;0.02;100.00;100432.31;5106734;28;20424;-49
2023/11/28 07:54:11;;;;;;;5.63;2.67;;;;;;;0.03;100.00;100431.41;5106624;28;20039;-45
2023/11/28 07:56:39;;;;;;;5.82;2.53;;;;;;;0.06;100.00;100439.94;5116910;28;20055;-48
2023/11/28 07:59:07;;;;;;;6.45;2.50;;;;;;;0.07;100.00;100446.81;5111983;28;20046;-47
2023/11/28 08:01:35;;;;;;;4.68;2.60;;;;;;;0.08;100.00;100438.16;5112180;28;20047;-47
2023/11/28 08:04:04;;;;;;;6.32;2.88;;;;;;;0.11;100.00;100445.84;5112107;28;20374;-54
2023/11/28 08:06:33;;;;;;;4.30;2.20;;;;;;;0.16;100.00;100451.72;5112150;28;20052;-53
2023/11/28 08:09:05;;;;;;;4.70;2.33;;;;;;;0.21;100.00;100451.59;5111676;28;20054;-46
2023/11/28 08:11:34;;;;;;;6.53;2.40;;;;;;;0.21;100.00;100459.34;5111750;28;20059;-46
2023/11/28 08:14:04;;;;;;;4.32;2.42;;;;;;;0.19;100.00;100455.94;5111977;28;20044;-46
2023/11/28 08:16:32;;;;;;;6.38;2.55;;;;;;;0.27;100.00;100461.78;5111781;28;20044;-55
2023/11/28 08:19:00;;;;;;;5.35;2.20;;;;;;;0.25;100.00;100458.38;5108442;28;20143;-53
2023/11/28 08:21:28;;;;;;;6.53;2.60;;;;;;;0.23;100.00;100462.75;5086806;28;20082;-46
2023/11/28 08:23:56;;;;;;;5.78;2.10;;;;;;;0.23;100.00;100469.66;5106502;28;20067;-46
2023/11/28 08:26:24;;;;;;;5.20;2.17;;;;;;;0.34;100.00;100470.19;5114393;28;20510;-47
2023/11/28 08:28:55;;;;;;;8.13;3.00;;;;;;;0.38;100.00;100473.53;5116008;28;20043;-53
2023/11/28 08:31:23;;;;;;;5.20;2.83;;;;;;;0.54;100.00;100474.78;5113055;28;20573;-53
2023/11/28 08:33:51;;;;;;;6.07;2.53;;;;;;;0.61;100.00;100480.63;5112465;28;20062;-54
2023/11/28 08:36:19;;;;;;;6.70;2.50;;;;;;;0.75;100.00;100477.63;5113558;28;20093;-54
2023/11/28 08:38:48;;;;;;;5.72;2.33;;;;;;;0.83;100.00;100476.50;5115658;28;20051;-51
2023/11/28 08:41:16;;;;;;;4.82;2.25;;;;;;;0.87;100.00;100474.66;5115416;28;20040;-51
2023/11/28 08:43:44;;;;;;;5.20;2.53;;;;;;;0.93;100.00;100487.44;5115115;28;20047;-54
2023/11/28 08:46:14;;;;;;;5.38;2.45;;;;;;;1.00;100.00;100493.28;5113299;28;20051;-52
2023/11/28 08:48:43;;;;;;;6.45;2.50;;;;;;;1.19;100.00;100496.13;5115420;28;20114;-53
2023/11/28 08:51:11;;;;;;;4.75;2.30;;;;;;;1.28;100.00;100507.94;5115432;28;20050;-53
2023/11/28 08:53:39;;;;;;;6.35;2.15;;;;;;;1.38;100.00;100513.66;5115680;27;20050;-53
2023/11/28 08:56:12;;;;;;;4.38;2.00;;;;;;;1.47;100.00;100513.38;5115595;28;20429;-52
2023/11/28 08:58:41;;;;;;;5.20;2.00;;;;;;;1.56;100.00;100523.44;5115246;28;20052;-52
2023/11/28 09:01:09;;;;;;;5.07;2.20;;;;;;;1.62;100.00;100519.81;5115177;28;20520;-54
2023/11/28 09:03:40;;;;;;;5.53;2.40;;;;;;;1.69;100.00;100518.69;5115162;28;20050;-59
2023/11/28 09:06:08;;;;;;;5.53;2.35;;;;;;;1.75;100.00;100523.69;5115051;28;20662;-52
2023/11/28 09:08:37;;;;;;;6.68;2.65;;;;;;;1.76;100.00;100520.22;5115001;28;20525;-53
2023/11/28 09:11:10;;;;;;;6.43;2.17;;;;;;;1.81;100.00;100522.63;5111872;28;20055;-52
2023/11/28 09:13:41;;;;;;;3.58;2.10;;;;;;;1.90;100.00;100522.31;5112099;28;20379;-53
2023/11/28 09:16:12;;;;;;;5.38;2.22;;;;;;;1.95;100.00;100522.16;5114585;28;20055;-55
2023/11/28 09:18:42;;;;;;;6.10;2.53;;;;;;;2.05;100.00;100513.16;5113615;28;20498;-54
2023/11/28 09:21:10;;;;;;;3.80;2.10;;;;;;;2.13;100.00;100521.53;5112375;27;20043;-56
2023/11/28 09:23:40;;;;;;;4.28;2.25;;;;;;;2.33;100.00;100533.81;5111952;28;20075;-55
2023/11/28 09:26:08;;;;;;;4.28;2.17;;;;;;;2.32;100.00;100541.66;5113598;28;20071;-55
2023/11/28 09:28:37;;;;;;;5.68;2.00;;;;;;;2.30;100.00;100541.69;5112200;28;20074;-55
2023/11/28 09:31:06;;;;;;;4.90;1.75;;;;;;;2.45;100.00;100542.88;5111305;28;20052;-56
2023/11/28 09:33:35;;;;;;;5.80;1.85;;;;;;;2.53;100.00;100543.44;5112694;28;20059;-54
2023/11/28 09:36:05;;;;;;;3.53;1.98;;;;;;;2.57;100.00;100548.56;5111968;28;20039;-55
2023/11/28 09:38:33;;;;;;;6.32;2.05;;;;;;;2.74;100.00;100551.38;5114101;28;20040;-55
2023/11/28 09:41:01;;;;;;;5.35;2.20;;;;;;;2.90;100.00;100550.78;5114031;28;20510;-54
2023/11/28 09:43:30;;;;;;;4.82;2.20;;;;;;;2.87;100.00;100552.59;5113992;28;20393;-54
2023/11/28 09:45:59;;;;;;;4.93;2.00;;;;;;;2.94;100.00;100549.78;5113766;28;20398;-54
2023/11/28 09:48:30;;;;;;;6.43;2.28;;;;;;;3.18;100.00;100550.59;5112022;28;20081;-45
2023/11/28 09:51:01;;;;;;;5.50;2.20;;;;;;;3.40;100.00;100555.78;5110753;28;20444;-47
2023/11/28 09:53:32;;;;;;;6.18;2.30;;;;;;;3.49;100.00;100550.22;5109956;28;20115;-46
2023/11/28 09:56:03;;;;;;;7.82;2.60;;;;;;;3.67;100.00;100551.22;5112938;28;20056;-46
2023/11/28 09:58:35;;;;;;;4.35;1.75;;;;;;;3.72;100.00;100551.00;5114177;28;20059;-46
2023/11/28 10:01:06;;;;;;;6.50;2.20;;;;;;;3.58;100.00;100554.19;5113661;28;20436;-46
2023/11/28 10:03:35;;;;;;;5.05;2.05;;;;;;;3.51;100.00;100563.16;5114005;28;20047;-47
2023/11/28 10:06:09;;;;;;;5.10;2.20;;;;;;;3.10;100.00;100561.28;5113756;28;20131;-47
2023/11/28 10:08:40;;;;;;;6.45;2.15;;;;;;;3.02;100.00;100558.13;5113524;28;20058;-45
2023/11/28 10:11:12;;;;;;;4.47;2.25;;;;;;;2.95;100.00;100564.47;5113775;28;20044;-46
2023/11/28 10:13:41;;;;;;;5.82;2.33;;;;;;;2.88;100.00;100556.88;5113449;28;20047;-46
2023/11/28 10:16:09;;;;;;;6.85;2.30;;;;;;;2.88;100.00;100543.91;5113840;28;20043;-46
2023/11/28 10:18:38;;;;;;;4.15;2.10;;;;;;;2.85;100.00;100549.22;5113264;28;20123;-46
2023/11/28 10:21:06;;;;;;;5.38;2.20;;;;;;;2.80;100.00;100545.94;5113408;28;20048;-46
2023/11/28 10:23:35;;;;;;;4.65;2.10;;;;;;;2.75;100.00;100540.06;5113599;28;20055;-48
2023/11/28 10:26:07;;;;;;;5.18;2.13;;;;;;;2.74;100.00;100550.50;5113352;28;20047;-46
2023/11/28 10:28:35;;;;;;;3.90;2.35;;;;;;;2.72;100.00;100555.78;5113045;28;20047;-47
2023/11/28 10:31:07;;;;;;;5.25;2.20;;;;;;;2.72;100.00;100547.13;5113129;28;20047;-46
2023/11/28 10:33:36;;;;;;;5.35;2.20;;;;;;;2.65;100.00;100556.91;5112599;28;20097;-47
2023/11/28 10:36:04;;;;;;;4.90;2.20;;;;;;;2.59;100.00;100549.31;5113267;28;20043;-49
2023/11/28 10:38:34;;;;;;;7.70;2.88;;;;;;;2.62;100.00;100549.19;5111880;28;20047;-47
2023/11/28 10:41:04;;;;;;;5.78;2.45;;;;;;;2.49;100.00;100552.25;5113135;28;20542;-46
2023/11/28 10:43:32;;;;;;;5.57;2.08;;;;;;;2.47;100.00;100548.03;5112754;28;20395;-46
2023/11/28 10:46:02;;;;;;;7.13;2.42;;;;;;;2.44;100.00;100555.91;5112144;28;20100;-47
2023/11/28 10:48:30;;;;;;;3.90;1.90;;;;;;;2.45;100.00;100548.06;5113071;28;20066;-48
2023/11/28 10:51:00;;;;;;;5.15;2.20;;;;;;;2.38;100.00;100559.59;5110856;28;20475;-49
2023/11/28 10:53:32;;;;;;;6.50;2.40;;;;;;;2.37;100.00;100560.47;5109688;28;20064;-49
2023/11/28 10:56:02;;;;;;;4.22;1.80;;;;;;;2.35;100.00;100565.72;5112405;28;20039;-47
2023/11/28 10:58:34;;;;;;;5.63;2.03;;;;;;;2.29;100.00;100565.09;5110886;28;20040;-48
2023/11/28 11:01:03;;;;;;;4.57;2.17;;;;;;;2.26;100.00;100573.00;5112081;28;20070;-45
2023/11/28 11:03:34;;;;;;;5.57;2.10;;;;;;;2.35;100.00;100572.69;5112589;28;20032;-47
2023/11/28 11:06:05;;;;;;;5.65;2.42;;;;;;;2.28;100.00;100584.19;5111992;28;20575;-47
2023/11/28 11:08:35;;;;;;;4.55;2.20;;;;;;;2.27;100.00;100580.72;5109074;28;20079;-47
2023/11/28 11:11:04;;;;;;;6.57;2.35;;;;;;;2.27;100.00;100577.28;5111347;28;20138;-49
2023/11/28 11:13:41;;;;;;;4.68;2.08;;;;;;;2.25;100.00;100581.69;5112409;28;20506;-49
2023/11/28 11:16:17;;;;;;;6.32;2.50;;;;;;;2.28;100.00;100581.59;5112140;28;20112;-46
2023/11/28 11:18:48;;;;;;;4.55;2.33;;;;;;;2.25;100.00;100573.88;5111900;28;20571;-46
2023/11/28 11:21:24;;;;;;;4.05;1.80;;;;;;;2.18;100.00;100576.72;5112140;28;20097;-48
2023/11/28 11:23:56;;;;;;;3.92;1.80;;;;;;;2.17;100.00;100575.00;5112044;28;20086;-46
2023/11/28 11:26:36;;;;;;;3.35;2.00;;;;;;;2.15;100.00;100575.97;5111666;28;20051;-48
2023/11/28 11:29:18;;;;;;;3.88;2.10;;;;;;;2.05;100.00;100575.44;5109110;28;20516;-47
2023/11/28 11:31:48;;;;;;;4.03;2.15;;;;;;;2.11;100.00;100574.38;5109767;28;20063;-46
2023/11/28 11:34:44;;;;;;;5.22;2.00;;;;;;;2.18;100.00;100583.63;5112364;28;20039;-46